createdAt,value
2022-10-16T00:02:06.837Z,98062.09
2022-10-16T00:05:11.964Z,98053.16
2022-10-16T00:08:16.888Z,98048.06
2022-10-16T00:11:25.211Z,98051.28
2022-10-16T00:14:30.102Z,98049.97
2022-10-16T00:17:34.934Z,98055.69
2022-10-16T00:20:40.442Z,98052.81
2022-10-16T00:23:45.724Z,98047.19
2022-10-16T00:26:53.709Z,98050.53
2022-10-16T00:33:04.011Z,98053.38
2022-10-16T00:36:10.024Z,98057.66
2022-10-16T00:39:15.427Z,98055.09
2022-10-16T00:42:22.241Z,98075.41
2022-10-16T00:45:27.080Z,98065.53
2022-10-16T00:48:32.404Z,98075.25
2022-10-16T00:51:38.854Z,98058.81
2022-10-16T00:54:46.083Z,98061.03
2022-10-16T00:57:54.811Z,98056.22
2022-10-16T01:00:59.949Z,98061.13
2022-10-16T01:04:06.589Z,98070.03
2022-10-16T01:07:17.246Z,98081.66
2022-10-16T01:10:30.178Z,98076.53
2022-10-16T01:13:43.777Z,98081.94
2022-10-16T01:16:55.860Z,98081.34
2022-10-16T01:20:10.790Z,98075.94
2022-10-16T01:23:30.317Z,98067.84
2022-10-16T01:26:45.215Z,98075.63
2022-10-16T01:29:56.860Z,98065.44
2022-10-16T01:33:08.417Z,98072.94
2022-10-16T01:36:19.647Z,98070.84
2022-10-16T01:39:32.534Z,98061.75
2022-10-16T01:42:41.403Z,98078.16
2022-10-16T01:45:49.053Z,98071.94
2022-10-16T01:48:55.207Z,98070.03
2022-10-16T01:52:03.630Z,98060.31
2022-10-16T01:55:10.932Z,98059.16
2022-10-16T01:58:17.038Z,98064.06
2022-10-16T02:01:26.417Z,98055.69
2022-10-16T02:04:35.826Z,98053.16
2022-10-16T02:07:42.743Z,98055.06
2022-10-16T02:10:47.439Z,98057.75
2022-10-16T02:13:56.257Z,98059.06
2022-10-16T02:17:04.468Z,98057.16
2022-10-16T02:20:09.273Z,98056.53
2022-10-16T02:23:20.003Z,98060.22
2022-10-16T02:26:31.888Z,98075.03
2022-10-16T02:29:42.257Z,98075.25
2022-10-16T02:32:51.302Z,98051.41
2022-10-16T02:35:57.278Z,98061.91
2022-10-16T02:39:02.807Z,98062.41
2022-10-16T02:42:08.592Z,98064.78
2022-10-16T02:45:14.607Z,98054.78
2022-10-16T02:48:21.229Z,98068.28
2022-10-16T02:51:26.565Z,98063.69
2022-10-16T02:54:31.714Z,98072.00
2022-10-16T02:57:38.164Z,98066.59
2022-10-16T03:00:45.037Z,98080.59
2022-10-16T03:03:51.625Z,98076.91
2022-10-16T03:06:56.547Z,98069.09
2022-10-16T03:10:01.698Z,98076.22
2022-10-16T03:13:07.655Z,98080.81
2022-10-16T03:16:12.722Z,98078.44
2022-10-16T03:19:19.773Z,98090.66
2022-10-16T03:22:24.826Z,98086.06
2022-10-16T03:25:29.997Z,98081.16
2022-10-16T03:28:34.907Z,98080.03
2022-10-16T03:31:39.776Z,98083.53
2022-10-16T03:34:46.450Z,98077.94
2022-10-16T03:37:51.350Z,98081.75
2022-10-16T03:40:57.870Z,98084.44
2022-10-16T03:44:01.205Z,98081.75
2022-10-16T03:47:03.862Z,98076.50
2022-10-16T03:50:09.645Z,98083.84
2022-10-16T03:53:16.152Z,98082.22
2022-10-16T03:56:19.367Z,98081.75
2022-10-16T03:59:21.974Z,98080.72
2022-10-16T04:02:24.700Z,98089.13
2022-10-16T04:05:28.914Z,98081.03
2022-10-16T04:08:31.579Z,98093.16
2022-10-16T04:11:34.545Z,98088.66
2022-10-16T04:14:37.596Z,98091.97
2022-10-16T04:17:40.325Z,98089.28
2022-10-16T04:20:44.302Z,98090.66
2022-10-16T04:23:46.966Z,98082.88
2022-10-16T04:26:49.579Z,98085.91
2022-10-16T04:29:52.236Z,98079.19
2022-10-16T04:32:55.142Z,98085.19
2022-10-16T04:36:03.357Z,98088.19
2022-10-16T04:39:06.012Z,98090.91
2022-10-16T04:42:08.642Z,98089.63
2022-10-16T04:45:14.739Z,98094.22
2022-10-16T04:48:19.981Z,98105.84
2022-10-16T04:51:24.013Z,98102.91
2022-10-16T04:54:26.823Z,98112.63
2022-10-16T04:57:29.855Z,98121.56
2022-10-16T05:00:32.477Z,98121.34
2022-10-16T05:03:35.188Z,98115.94
2022-10-16T05:06:40.393Z,98128.34
2022-10-16T05:09:43.033Z,98130.44
2022-10-16T05:12:45.760Z,98123.44
2022-10-16T05:15:49.121Z,98123.44
2022-10-16T05:18:56.185Z,98114.53
2022-10-16T05:22:08.573Z,98114.22
2022-10-16T05:25:11.249Z,98113.13
2022-10-16T05:28:13.873Z,98108.31
2022-10-16T05:31:16.534Z,98122.31
2022-10-16T05:34:19.302Z,98118.13
2022-10-16T05:37:23.644Z,98124.16
2022-10-16T05:40:26.510Z,98137.16
2022-10-16T05:43:29.805Z,98136.66
2022-10-16T05:46:32.440Z,98131.25
2022-10-16T05:49:37.862Z,98131.56
2022-10-16T05:52:44.450Z,98137.28
2022-10-16T05:55:53.968Z,98144.47
2022-10-16T05:58:57.101Z,98147.16
2022-10-16T06:01:59.872Z,98146.75
2022-10-16T06:05:02.491Z,98150.91
2022-10-16T06:08:06.649Z,98155.69
2022-10-16T06:11:11.565Z,98155.88
2022-10-16T06:14:14.268Z,98162.09
2022-10-16T06:17:17.177Z,98167.19
2022-10-16T06:20:19.797Z,98166.59
2022-10-16T06:23:24.549Z,98157.53
2022-10-16T06:26:28.436Z,98165.66
2022-10-16T06:29:31.065Z,98169.34
2022-10-16T06:32:33.702Z,98173.66
2022-10-16T06:35:36.357Z,98167.25
2022-10-16T06:38:41.080Z,98167.44
2022-10-16T06:41:43.705Z,98167.13
2022-10-16T06:44:46.377Z,98177.09
2022-10-16T06:47:49.388Z,98177.34
2022-10-16T06:50:59.500Z,98191.81
2022-10-16T06:54:04.627Z,98195.13
2022-10-16T06:57:07.376Z,98199.25
2022-10-16T07:00:10.764Z,98195.44
2022-10-16T07:03:13.410Z,98210.25
2022-10-16T07:06:18.246Z,98206.59
2022-10-16T07:09:22.384Z,98216.69
2022-10-16T07:12:25.380Z,98225.19
2022-10-16T07:15:28.340Z,98222.03
2022-10-16T07:18:33.116Z,98229.25
2022-10-16T07:21:37.406Z,98229.75
2022-10-16T07:24:42.788Z,98241.06
2022-10-16T07:27:45.647Z,98238.66
2022-10-16T07:30:48.254Z,98244.38
2022-10-16T07:33:51.153Z,98250.09
2022-10-16T07:36:53.817Z,98262.03
2022-10-16T07:39:57.788Z,98247.19
2022-10-16T07:43:03.033Z,98244.50
2022-10-16T07:46:06.632Z,98240.66
2022-10-16T07:49:10.833Z,98255.19
2022-10-16T07:52:13.454Z,98254.59
2022-10-16T07:55:17.752Z,98257.97
2022-10-16T07:58:20.399Z,98264.84
2022-10-16T08:01:23.120Z,98269.81
2022-10-16T08:04:25.785Z,98268.31
2022-10-16T08:07:28.809Z,98275.69
2022-10-16T08:10:32.974Z,98274.63
2022-10-16T08:13:36.010Z,98280.41
2022-10-16T08:16:38.656Z,98272.53
2022-10-16T08:19:41.288Z,98271.31
2022-10-16T08:22:43.871Z,98277.75
2022-10-16T08:25:47.868Z,98277.31
2022-10-16T08:28:51.798Z,98292.50
2022-10-16T08:31:54.501Z,98304.16
2022-10-16T08:34:57.132Z,98298.31
2022-10-16T08:37:59.770Z,98297.53
2022-10-16T08:41:22.001Z,98299.78
2022-10-16T08:44:41.617Z,98293.72
2022-10-16T08:47:50.780Z,98295.97
2022-10-16T08:50:54.957Z,98305.38
2022-10-16T08:53:59.677Z,98294.69
2022-10-16T08:57:11.766Z,98297.28
2022-10-16T09:00:16.575Z,98295.53
2022-10-16T09:03:31.269Z,98290.25
2022-10-16T09:06:45.361Z,98304.78
2022-10-16T09:10:16.905Z,98296.00
2022-10-16T09:13:28.258Z,98306.53
2022-10-16T09:16:35.959Z,98304.16
2022-10-16T09:19:43.944Z,98301.75
2022-10-16T09:22:46.581Z,98313.72
2022-10-16T09:25:52.027Z,98316.75
2022-10-16T09:28:56.186Z,98316.94
2022-10-16T09:32:14.151Z,98331.97
2022-10-16T09:35:20.111Z,98320.13
2022-10-16T09:38:25.929Z,98330.03
2022-10-16T09:41:28.721Z,98326.84
2022-10-16T09:44:33.715Z,98327.16
2022-10-16T09:47:41.746Z,98330.34
2022-10-16T09:50:44.492Z,98332.75
2022-10-16T09:53:48.483Z,98332.75
2022-10-16T09:56:52.951Z,98344.72
2022-10-16T09:59:59.373Z,98346.09
2022-10-16T10:03:02.156Z,98346.38
2022-10-16T10:06:18.313Z,98354.53
2022-10-16T10:09:23.567Z,98354.66
2022-10-16T10:12:27.448Z,98351.47
2022-10-16T10:15:36.581Z,98354.97
2022-10-16T10:18:39.210Z,98353.19
2022-10-16T10:21:41.984Z,98363.25
2022-10-16T10:24:46.371Z,98356.16
2022-10-16T10:28:12.975Z,98359.41
2022-10-16T10:31:24.270Z,98356.06
2022-10-16T10:34:42.041Z,98358.06
2022-10-16T10:37:57.296Z,98362.22
2022-10-16T10:41:19.130Z,98363.47
2022-10-16T10:44:33.089Z,98361.50
2022-10-16T10:47:45.978Z,98368.94
2022-10-16T10:50:53.878Z,98358.41
2022-10-16T10:54:06.776Z,98361.91
2022-10-16T10:57:17.089Z,98362.06
2022-10-16T11:00:25.226Z,98353.97
2022-10-16T11:03:44.690Z,98352.84
2022-10-16T11:06:51.453Z,98353.78
2022-10-16T11:09:57.702Z,98351.19
2022-10-16T11:13:12.778Z,98353.00
2022-10-16T11:16:21.588Z,98359.03
2022-10-16T11:19:37.501Z,98356.31
2022-10-16T11:22:44.459Z,98349.50
2022-10-16T11:25:49.309Z,98348.94
2022-10-16T11:28:56.268Z,98355.06
2022-10-16T11:32:02.398Z,98351.75
2022-10-16T11:35:16.627Z,98338.22
2022-10-16T11:38:35.217Z,98347.13
2022-10-16T11:41:44.116Z,98336.06
2022-10-16T11:44:57.262Z,98336.44
2022-10-16T11:48:04.288Z,98345.31
2022-10-16T11:51:13.427Z,98348.16
2022-10-16T11:54:23.365Z,98354.06
2022-10-16T11:57:30.212Z,98346.47
2022-10-16T12:00:40.374Z,98330.97
2022-10-16T12:03:50.753Z,98335.50
2022-10-16T12:07:01.003Z,98337.66
2022-10-16T12:10:12.578Z,98327.44
2022-10-16T12:13:35.486Z,98329.44
2022-10-16T12:16:40.033Z,98327.75
2022-10-16T12:19:42.849Z,98333.72
2022-10-16T12:22:55.019Z,98330.38
2022-10-16T12:25:59.595Z,98333.59
2022-10-16T12:29:16.338Z,98332.09
2022-10-16T12:32:47.523Z,98335.59
2022-10-16T12:35:50.691Z,98339.06
2022-10-16T12:38:55.771Z,98331.75
2022-10-16T12:42:07.085Z,98335.34
2022-10-16T12:45:27.076Z,98335.94
2022-10-16T12:48:37.100Z,98330.13
2022-10-16T12:51:51.362Z,98329.16
2022-10-16T12:55:00.085Z,98332.88
2022-10-16T12:58:25.216Z,98349.66
2022-10-16T13:01:38.950Z,98342.97
2022-10-16T13:04:59.553Z,98342.75
2022-10-16T13:08:18.825Z,98343.63
2022-10-16T13:11:29.733Z,98345.53
2022-10-16T13:14:52.640Z,98350.63
2022-10-16T13:18:06.608Z,98352.22
2022-10-16T13:21:27.206Z,98350.75
2022-10-16T13:24:54.794Z,98343.63
2022-10-16T13:28:07.237Z,98349.66
2022-10-16T13:31:18.073Z,98354.25
2022-10-16T13:34:24.491Z,98349.03
2022-10-16T13:37:28.707Z,98354.84
2022-10-16T13:40:31.687Z,98354.81
2022-10-16T13:43:38.264Z,98352.22
2022-10-16T13:46:42.667Z,98358.81
2022-10-16T13:49:45.453Z,98361.09
2022-10-16T13:52:48.174Z,98352.91
2022-10-16T13:55:50.819Z,98349.28
2022-10-16T13:59:02.549Z,98355.50
2022-10-16T14:02:16.959Z,98344.03
2022-10-16T14:05:19.756Z,98344.38
2022-10-16T14:08:23.417Z,98354.06
2022-10-16T14:11:27.029Z,98356.22
2022-10-16T14:14:36.707Z,98355.28
2022-10-16T14:17:47.990Z,98353.69
2022-10-16T14:20:51.578Z,98348.19
2022-10-16T14:23:54.862Z,98354.19
2022-10-16T14:26:57.790Z,98356.03
2022-10-16T14:30:16.088Z,98359.31
2022-10-16T14:33:26.088Z,98361.06
2022-10-16T14:36:30.138Z,98361.28
2022-10-16T14:39:32.913Z,98364.69
2022-10-16T14:42:37.152Z,98360.56
2022-10-16T14:45:44.096Z,98365.25
2022-10-16T14:48:49.753Z,98371.94
2022-10-16T14:51:52.976Z,98364.56
2022-10-16T14:54:57.372Z,98376.72
2022-10-16T14:58:00.944Z,98367.06
2022-10-16T15:01:07.784Z,98372.19
2022-10-16T15:04:13.334Z,98372.19
2022-10-16T15:07:16.143Z,98365.13
2022-10-16T15:10:20.097Z,98372.50
2022-10-16T15:13:22.774Z,98371.75
2022-10-16T15:16:26.785Z,98373.19
2022-10-16T15:19:29.608Z,98372.75
2022-10-16T15:22:32.251Z,98371.00
2022-10-16T15:25:40.541Z,98375.06
2022-10-16T15:28:43.345Z,98364.72
2022-10-16T15:31:48.582Z,98367.63
2022-10-16T15:34:51.563Z,98366.41
2022-10-16T15:37:54.287Z,98368.19
2022-10-16T15:40:57.535Z,98375.56
2022-10-16T15:44:06.338Z,98375.44
2022-10-16T15:47:14.853Z,98370.97
2022-10-16T15:50:21.315Z,98368.47
2022-10-16T15:53:27.668Z,98375.25
2022-10-16T15:56:35.322Z,98375.75
2022-10-16T15:59:43.151Z,98386.84
2022-10-16T16:02:53.159Z,98383.88
2022-10-16T16:05:56.775Z,98384.34
2022-10-16T16:12:06.026Z,98376.91
2022-10-16T16:15:15.790Z,98371.03
2022-10-16T16:18:24.518Z,98380.38
2022-10-16T16:21:32.214Z,98375.16
2022-10-16T16:24:35.603Z,98374.59
2022-10-16T16:27:40.165Z,98376.41
2022-10-16T16:30:44.832Z,98385.53
2022-10-16T16:34:06.477Z,98388.78
2022-10-16T16:37:45.421Z,98392.47
2022-10-16T16:41:03.321Z,98390.72
2022-10-16T16:44:26.251Z,98390.09
2022-10-16T16:47:59.763Z,98394.25
2022-10-16T16:55:24.125Z,98398.91
2022-10-16T16:58:32.646Z,98405.09
2022-10-16T17:01:40.619Z,98417.22
2022-10-16T17:04:51.155Z,98417.53
2022-10-16T17:07:59.038Z,98418.00
2022-10-16T17:11:20.707Z,98418.94
2022-10-16T17:14:31.231Z,98425.66
2022-10-16T17:17:38.751Z,98430.41
2022-10-16T17:20:44.909Z,98441.09
2022-10-16T17:23:55.596Z,98446.19
2022-10-16T17:27:07.177Z,98438.47
2022-10-16T17:30:14.749Z,98441.66
2022-10-16T17:33:37.120Z,98440.69
2022-10-16T17:36:58.202Z,98444.97
2022-10-16T17:40:15.232Z,98456.56
2022-10-16T17:43:37.901Z,98458.22
2022-10-16T17:46:42.068Z,98457.38
2022-10-16T17:50:00.814Z,98474.38
2022-10-16T17:53:11.812Z,98458.69
2022-10-16T17:56:21.149Z,98465.00
2022-10-16T17:59:35.484Z,98472.78
2022-10-16T18:02:45.728Z,98468.28
2022-10-16T18:05:57.717Z,98473.03
2022-10-16T18:09:22.418Z,98467.09
2022-10-16T18:12:30.605Z,98484.59
2022-10-16T18:15:42.957Z,98473.88
2022-10-16T18:18:54.203Z,98475.59
2022-10-16T18:22:01.620Z,98478.94
2022-10-16T18:25:10.052Z,98482.53
2022-10-16T18:28:17.874Z,98486.66
2022-10-16T18:31:26.878Z,98495.09
2022-10-16T18:34:35.007Z,98497.59
2022-10-16T18:37:42.982Z,98500.72
2022-10-16T18:40:52.940Z,98502.69
2022-10-16T18:44:00.540Z,98505.81
2022-10-16T18:47:09.382Z,98506.94
2022-10-16T18:50:16.449Z,98512.34
2022-10-16T18:53:26.406Z,98508.31
2022-10-16T18:56:35.555Z,98508.94
2022-10-16T18:59:45.795Z,98513.56
2022-10-16T19:02:58.616Z,98509.53
2022-10-16T19:06:07.344Z,98512.03
2022-10-16T19:13:07.528Z,98521.56
2022-10-16T19:20:06.292Z,98524.78
2022-10-16T19:23:26.019Z,98527.28
2022-10-16T19:26:56.647Z,98522.19
2022-10-16T19:30:04.591Z,98529.47
2022-10-16T19:33:14.503Z,98536.00
2022-10-16T19:36:31.996Z,98531.69
2022-10-16T19:43:05.142Z,98537.81
2022-10-16T19:46:11.037Z,98534.00
2022-10-16T19:49:21.259Z,98532.59
2022-10-16T19:52:31.347Z,98536.91
2022-10-16T19:55:35.432Z,98537.03
2022-10-16T19:58:39.984Z,98557.84
2022-10-16T20:01:45.639Z,98554.16
2022-10-16T20:04:52.256Z,98559.88
2022-10-16T20:07:59.956Z,98565.09
2022-10-16T20:11:14.906Z,98563.75
2022-10-16T20:14:23.665Z,98568.38
2022-10-16T20:21:03.187Z,98581.59
2022-10-16T20:24:10.525Z,98576.50
2022-10-16T20:27:17.195Z,98591.34
2022-10-16T20:30:21.844Z,98586.72
2022-10-16T20:33:26.327Z,98591.03
2022-10-16T20:36:36.162Z,98605.66
2022-10-16T20:39:45.806Z,98606.25
2022-10-16T20:42:53.442Z,98608.66
2022-10-16T20:46:04.817Z,98612.56
2022-10-16T20:49:28.259Z,98618.56
2022-10-16T20:52:39.794Z,98616.47
2022-10-16T20:55:47.845Z,98625.16
2022-10-16T20:58:59.461Z,98626.59
2022-10-16T21:02:07.817Z,98631.75
2022-10-16T21:05:15.532Z,98631.66
2022-10-16T21:12:00.659Z,98644.41
2022-10-16T21:15:16.784Z,98642.06
2022-10-16T21:18:25.970Z,98654.47
2022-10-16T21:21:38.397Z,98656.19
2022-10-16T21:31:58.629Z,98656.75
2022-10-16T21:35:15.520Z,98663.81
2022-10-16T21:38:19.764Z,98669.56
2022-10-16T21:41:32.081Z,98666.22
2022-10-16T21:44:39.839Z,98666.88
2022-10-16T21:47:48.379Z,98658.03
2022-10-16T21:50:54.655Z,98657.72
2022-10-16T21:54:04.380Z,98665.31
2022-10-16T21:57:11.389Z,98658.81
2022-10-16T22:00:16.522Z,98659.91
2022-10-16T22:03:19.670Z,98670.22
2022-10-16T22:06:25.636Z,98662.91
2022-10-16T22:09:28.695Z,98667.22
2022-10-16T22:12:32.245Z,98662.31
2022-10-16T22:15:36.523Z,98671.25
2022-10-16T22:18:40.407Z,98662.69
2022-10-16T22:21:45.968Z,98671.34
2022-10-16T22:24:51.143Z,98673.63
2022-10-16T22:27:54.087Z,98673.88
2022-10-16T22:31:02.332Z,98678.50
2022-10-16T22:34:06.032Z,98676.94
2022-10-16T22:37:12.271Z,98679.88
2022-10-16T22:40:15.061Z,98670.75
2022-10-16T22:43:17.931Z,98673.72
2022-10-16T22:46:24.077Z,98675.84
2022-10-16T22:49:26.999Z,98675.41
2022-10-16T22:52:32.146Z,98670.31
2022-10-16T22:55:35.308Z,98669.88
2022-10-16T22:58:38.653Z,98660.75
2022-10-16T23:01:43.499Z,98671.84
2022-10-16T23:04:46.239Z,98666.75
2022-10-16T23:07:49.861Z,98668.44
2022-10-16T23:10:52.978Z,98670.97
2022-10-16T23:13:56.393Z,98675.06
2022-10-16T23:17:00.572Z,98679.13
2022-10-16T23:20:03.294Z,98684.28
2022-10-16T23:23:06.079Z,98684.28
2022-10-16T23:26:11.159Z,98685.41
2022-10-16T23:29:13.888Z,98690.50
2022-10-16T23:32:18.288Z,98691.88
2022-10-16T23:35:21.527Z,98701.88
2022-10-16T23:38:24.615Z,98697.00
2022-10-16T23:41:27.515Z,98706.19
2022-10-16T23:44:30.360Z,98700.84
2022-10-16T23:47:34.884Z,98708.69
2022-10-16T23:50:37.817Z,98702.25
2022-10-16T23:53:41.389Z,98709.28
2022-10-16T23:56:44.387Z,98718.97
2022-10-16T23:59:47.199Z,98716.28
